sensor_id;sensor_type;location;lat;lon;timestamp;P1;durP1;ratioP1;P2;durP2;ratioP2
18789;SDS011;9523;42.650;23.386;2024-03-02T00:00:49;27.90;;;13.43;;
18789;SDS011;9523;42.650;23.386;2024-03-02T00:03:16;30.37;;;15.20;;
18789;SDS011;9523;42.650;23.386;2024-03-02T00:05:43;29.97;;;14.00;;
18789;SDS011;9523;42.650;23.386;2024-03-02T00:08:16;35.13;;;13.37;;
18789;SDS011;9523;42.650;23.386;2024-03-02T00:10:50;33.17;;;14.60;;
18789;SDS011;9523;42.650;23.386;2024-03-02T00:13:20;33.27;;;14.73;;
18789;SDS011;9523;42.650;23.386;2024-03-02T00:15:51;31.40;;;15.10;;
18789;SDS011;9523;42.650;23.386;2024-03-02T00:18:19;30.07;;;15.33;;
18789;SDS011;9523;42.650;23.386;2024-03-02T00:20:47;34.63;;;15.20;;
18789;SDS011;9523;42.650;23.386;2024-03-02T00:23:15;27.57;;;12.53;;
18789;SDS011;9523;42.650;23.386;2024-03-02T00:25:46;32.90;;;15.20;;
18789;SDS011;9523;42.650;23.386;2024-03-02T00:28:14;28.70;;;14.93;;
18789;SDS011;9523;42.650;23.386;2024-03-02T00:30:50;29.20;;;14.63;;
18789;SDS011;9523;42.650;23.386;2024-03-02T00:33:19;33.37;;;12.10;;
18789;SDS011;9523;42.650;23.386;2024-03-02T00:35:47;27.53;;;11.53;;
18789;SDS011;9523;42.650;23.386;2024-03-02T00:38:14;22.67;;;10.07;;
18789;SDS011;9523;42.650;23.386;2024-03-02T00:40:43;25.33;;;11.73;;
18789;SDS011;9523;42.650;23.386;2024-03-02T00:43:17;26.67;;;11.23;;
18789;SDS011;9523;42.650;23.386;2024-03-02T00:46:05;27.40;;;11.47;;
18789;SDS011;9523;42.650;23.386;2024-03-02T00:48:33;22.40;;;9.97;;
18789;SDS011;9523;42.650;23.386;2024-03-02T00:51:01;21.60;;;10.87;;
18789;SDS011;9523;42.650;23.386;2024-03-02T00:53:31;24.77;;;12.47;;
18789;SDS011;9523;42.650;23.386;2024-03-02T00:55:59;23.07;;;10.60;;
18789;SDS011;9523;42.650;23.386;2024-03-02T00:58:27;25.67;;;12.40;;
18789;SDS011;9523;42.650;23.386;2024-03-02T01:00:54;24.00;;;10.73;;
18789;SDS011;9523;42.650;23.386;2024-03-02T01:03:21;20.73;;;10.27;;
18789;SDS011;9523;42.650;23.386;2024-03-02T01:05:48;22.47;;;9.47;;
18789;SDS011;9523;42.650;23.386;2024-03-02T01:08:15;22.53;;;10.37;;
18789;SDS011;9523;42.650;23.386;2024-03-02T01:10:43;20.40;;;9.70;;
18789;SDS011;9523;42.650;23.386;2024-03-02T01:13:10;24.77;;;10.03;;
18789;SDS011;9523;42.650;23.386;2024-03-02T01:15:38;19.37;;;8.17;;
18789;SDS011;9523;42.650;23.386;2024-03-02T01:18:05;25.63;;;11.10;;
18789;SDS011;9523;42.650;23.386;2024-03-02T01:20:32;24.13;;;10.97;;
18789;SDS011;9523;42.650;23.386;2024-03-02T01:22:59;21.17;;;9.97;;
18789;SDS011;9523;42.650;23.386;2024-03-02T01:25:26;21.07;;;11.27;;
18789;SDS011;9523;42.650;23.386;2024-03-02T01:27:54;23.53;;;10.77;;
18789;SDS011;9523;42.650;23.386;2024-03-02T01:30:21;24.73;;;9.87;;
18789;SDS011;9523;42.650;23.386;2024-03-02T01:32:48;22.63;;;10.60;;
18789;SDS011;9523;42.650;23.386;2024-03-02T01:35:14;22.30;;;10.00;;
18789;SDS011;9523;42.650;23.386;2024-03-02T01:37:41;24.17;;;10.60;;
18789;SDS011;9523;42.650;23.386;2024-03-02T01:40:09;21.47;;;10.20;;
18789;SDS011;9523;42.650;23.386;2024-03-02T01:42:37;24.17;;;10.77;;
18789;SDS011;9523;42.650;23.386;2024-03-02T01:45:06;25.67;;;10.57;;
18789;SDS011;9523;42.650;23.386;2024-03-02T01:47:34;23.23;;;10.97;;
18789;SDS011;9523;42.650;23.386;2024-03-02T01:50:01;22.93;;;10.50;;
18789;SDS011;9523;42.650;23.386;2024-03-02T01:52:28;23.27;;;11.13;;
18789;SDS011;9523;42.650;23.386;2024-03-02T01:54:56;24.93;;;12.17;;
18789;SDS011;9523;42.650;23.386;2024-03-02T01:57:22;23.13;;;11.17;;
18789;SDS011;9523;42.650;23.386;2024-03-02T01:59:49;27.80;;;12.30;;
18789;SDS011;9523;42.650;23.386;2024-03-02T02:02:18;23.97;;;10.93;;
18789;SDS011;9523;42.650;23.386;2024-03-02T02:04:46;28.30;;;13.07;;
18789;SDS011;9523;42.650;23.386;2024-03-02T02:07:13;27.70;;;11.93;;
18789;SDS011;9523;42.650;23.386;2024-03-02T02:09:40;32.27;;;13.30;;
18789;SDS011;9523;42.650;23.386;2024-03-02T02:12:08;26.53;;;12.53;;
18789;SDS011;9523;42.650;23.386;2024-03-02T02:14:36;28.40;;;12.40;;
18789;SDS011;9523;42.650;23.386;2024-03-02T02:17:05;29.43;;;12.60;;
18789;SDS011;9523;42.650;23.386;2024-03-02T02:19:33;26.70;;;13.13;;
18789;SDS011;9523;42.650;23.386;2024-03-02T02:22:02;26.67;;;11.83;;
18789;SDS011;9523;42.650;23.386;2024-03-02T02:24:29;27.43;;;12.23;;
18789;SDS011;9523;42.650;23.386;2024-03-02T02:26:56;24.70;;;11.03;;
18789;SDS011;9523;42.650;23.386;2024-03-02T02:29:22;25.23;;;11.47;;
18789;SDS011;9523;42.650;23.386;2024-03-02T02:31:49;24.40;;;10.83;;
18789;SDS011;9523;42.650;23.386;2024-03-02T02:34:17;29.67;;;12.20;;
18789;SDS011;9523;42.650;23.386;2024-03-02T02:36:44;28.60;;;11.90;;
18789;SDS011;9523;42.650;23.386;2024-03-02T02:39:13;26.30;;;11.80;;
18789;SDS011;9523;42.650;23.386;2024-03-02T02:41:43;23.63;;;12.27;;
18789;SDS011;9523;42.650;23.386;2024-03-02T02:44:10;27.73;;;12.27;;
18789;SDS011;9523;42.650;23.386;2024-03-02T02:46:38;29.20;;;12.70;;
18789;SDS011;9523;42.650;23.386;2024-03-02T02:49:05;30.50;;;12.07;;
18789;SDS011;9523;42.650;23.386;2024-03-02T02:51:32;31.23;;;13.00;;
18789;SDS011;9523;42.650;23.386;2024-03-02T02:53:59;27.63;;;12.77;;
18789;SDS011;9523;42.650;23.386;2024-03-02T02:56:27;29.87;;;13.20;;
18789;SDS011;9523;42.650;23.386;2024-03-02T02:58:54;25.70;;;12.17;;
18789;SDS011;9523;42.650;23.386;2024-03-02T03:01:22;31.10;;;13.87;;
18789;SDS011;9523;42.650;23.386;2024-03-02T03:03:49;31.63;;;13.13;;
18789;SDS011;9523;42.650;23.386;2024-03-02T03:06:16;29.70;;;13.63;;
18789;SDS011;9523;42.650;23.386;2024-03-02T03:08:42;30.27;;;12.80;;
18789;SDS011;9523;42.650;23.386;2024-03-02T03:11:10;31.73;;;13.50;;
18789;SDS011;9523;42.650;23.386;2024-03-02T03:13:38;28.17;;;13.10;;
18789;SDS011;9523;42.650;23.386;2024-03-02T03:16:05;26.37;;;12.70;;
18789;SDS011;9523;42.650;23.386;2024-03-02T03:18:32;29.80;;;12.50;;
18789;SDS011;9523;42.650;23.386;2024-03-02T03:20:59;28.83;;;12.53;;
18789;SDS011;9523;42.650;23.386;2024-03-02T03:23:27;28.70;;;11.87;;
18789;SDS011;9523;42.650;23.386;2024-03-02T03:25:54;28.57;;;12.33;;
18789;SDS011;9523;42.650;23.386;2024-03-02T03:28:21;27.73;;;12.77;;
18789;SDS011;9523;42.650;23.386;2024-03-02T03:30:49;27.17;;;12.07;;
18789;SDS011;9523;42.650;23.386;2024-03-02T03:33:16;30.53;;;12.10;;
18789;SDS011;9523;42.650;23.386;2024-03-02T03:35:43;26.70;;;11.47;;
18789;SDS011;9523;42.650;23.386;2024-03-02T03:38:10;26.27;;;11.67;;
18789;SDS011;9523;42.650;23.386;2024-03-02T03:40:38;26.23;;;11.73;;
18789;SDS011;9523;42.650;23.386;2024-03-02T03:43:05;23.87;;;11.47;;
18789;SDS011;9523;42.650;23.386;2024-03-02T03:45:32;25.70;;;12.10;;
18789;SDS011;9523;42.650;23.386;2024-03-02T03:48:00;25.60;;;12.63;;
18789;SDS011;9523;42.650;23.386;2024-03-02T03:50:27;22.10;;;11.20;;
18789;SDS011;9523;42.650;23.386;2024-03-02T03:52:54;29.77;;;12.43;;
18789;SDS011;9523;42.650;23.386;2024-03-02T03:55:21;30.90;;;13.13;;
18789;SDS011;9523;42.650;23.386;2024-03-02T03:57:48;28.17;;;12.33;;
18789;SDS011;9523;42.650;23.386;2024-03-02T04:00:15;30.77;;;12.07;;
18789;SDS011;9523;42.650;23.386;2024-03-02T04:02:42;28.20;;;12.53;;
18789;SDS011;9523;42.650;23.386;2024-03-02T04:05:11;25.57;;;12.47;;
18789;SDS011;9523;42.650;23.386;2024-03-02T04:07:38;26.10;;;10.93;;
18789;SDS011;9523;42.650;23.386;2024-03-02T04:10:07;25.07;;;12.13;;
18789;SDS011;9523;42.650;23.386;2024-03-02T04:12:35;24.73;;;11.57;;
18789;SDS011;9523;42.650;23.386;2024-03-02T04:15:03;29.37;;;12.10;;
18789;SDS011;9523;42.650;23.386;2024-03-02T04:17:31;27.83;;;12.37;;
18789;SDS011;9523;42.650;23.386;2024-03-02T04:20:01;24.27;;;12.40;;
18789;SDS011;9523;42.650;23.386;2024-03-02T04:22:32;24.87;;;11.50;;
18789;SDS011;9523;42.650;23.386;2024-03-02T04:25:00;31.47;;;13.13;;
18789;SDS011;9523;42.650;23.386;2024-03-02T04:27:29;29.53;;;12.57;;
18789;SDS011;9523;42.650;23.386;2024-03-02T04:29:58;24.57;;;12.00;;
18789;SDS011;9523;42.650;23.386;2024-03-02T04:32:26;24.63;;;12.03;;
18789;SDS011;9523;42.650;23.386;2024-03-02T04:34:53;25.40;;;11.90;;
18789;SDS011;9523;42.650;23.386;2024-03-02T04:37:20;25.87;;;11.50;;
18789;SDS011;9523;42.650;23.386;2024-03-02T04:39:49;32.50;;;11.80;;
18789;SDS011;9523;42.650;23.386;2024-03-02T04:42:16;29.50;;;12.33;;
18789;SDS011;9523;42.650;23.386;2024-03-02T04:44:43;32.30;;;13.50;;
18789;SDS011;9523;42.650;23.386;2024-03-02T04:47:10;25.77;;;11.67;;
18789;SDS011;9523;42.650;23.386;2024-03-02T04:49:37;27.70;;;12.20;;
18789;SDS011;9523;42.650;23.386;2024-03-02T04:52:04;28.20;;;12.90;;
18789;SDS011;9523;42.650;23.386;2024-03-02T04:54:31;32.60;;;12.40;;
18789;SDS011;9523;42.650;23.386;2024-03-02T04:57:20;26.53;;;11.80;;
18789;SDS011;9523;42.650;23.386;2024-03-02T04:59:47;29.80;;;12.67;;
18789;SDS011;9523;42.650;23.386;2024-03-02T05:02:14;25.40;;;11.67;;
18789;SDS011;9523;42.650;23.386;2024-03-02T05:04:41;30.67;;;12.87;;
18789;SDS011;9523;42.650;23.386;2024-03-02T05:07:08;24.73;;;12.03;;
18789;SDS011;9523;42.650;23.386;2024-03-02T05:09:35;31.77;;;12.77;;
18789;SDS011;9523;42.650;23.386;2024-03-02T05:12:02;31.10;;;12.97;;
18789;SDS011;9523;42.650;23.386;2024-03-02T05:14:44;31.53;;;13.07;;
18789;SDS011;9523;42.650;23.386;2024-03-02T05:17:11;24.97;;;11.00;;
18789;SDS011;9523;42.650;23.386;2024-03-02T05:19:39;27.43;;;11.07;;
18789;SDS011;9523;42.650;23.386;2024-03-02T05:22:06;28.80;;;10.73;;
18789;SDS011;9523;42.650;23.386;2024-03-02T05:24:33;21.30;;;10.13;;
18789;SDS011;9523;42.650;23.386;2024-03-02T05:26:59;19.00;;;7.77;;
18789;SDS011;9523;42.650;23.386;2024-03-02T05:29:26;15.30;;;6.50;;
18789;SDS011;9523;42.650;23.386;2024-03-02T05:31:55;9.03;;;6.13;;
18789;SDS011;9523;42.650;23.386;2024-03-02T05:34:22;17.00;;;7.50;;
18789;SDS011;9523;42.650;23.386;2024-03-02T05:36:49;15.43;;;7.00;;
18789;SDS011;9523;42.650;23.386;2024-03-02T05:39:16;17.17;;;8.57;;
18789;SDS011;9523;42.650;23.386;2024-03-02T05:41:43;14.70;;;7.23;;
18789;SDS011;9523;42.650;23.386;2024-03-02T05:44:10;20.60;;;8.23;;
18789;SDS011;9523;42.650;23.386;2024-03-02T05:46:38;20.90;;;8.13;;
18789;SDS011;9523;42.650;23.386;2024-03-02T05:49:06;21.77;;;9.07;;
18789;SDS011;9523;42.650;23.386;2024-03-02T05:51:35;17.57;;;8.90;;
18789;SDS011;9523;42.650;23.386;2024-03-02T05:54:02;19.90;;;8.43;;
18789;SDS011;9523;42.650;23.386;2024-03-02T05:56:29;20.87;;;8.80;;
18789;SDS011;9523;42.650;23.386;2024-03-02T05:58:56;22.10;;;9.57;;
18789;SDS011;9523;42.650;23.386;2024-03-02T06:01:33;22.17;;;9.67;;
18789;SDS011;9523;42.650;23.386;2024-03-02T06:04:00;21.67;;;10.37;;
18789;SDS011;9523;42.650;23.386;2024-03-02T06:06:29;20.20;;;10.77;;
18789;SDS011;9523;42.650;23.386;2024-03-02T06:08:57;21.27;;;9.33;;
18789;SDS011;9523;42.650;23.386;2024-03-02T06:11:24;21.93;;;10.70;;
18789;SDS011;9523;42.650;23.386;2024-03-02T06:13:51;23.23;;;10.20;;
18789;SDS011;9523;42.650;23.386;2024-03-02T06:16:18;24.87;;;11.17;;
18789;SDS011;9523;42.650;23.386;2024-03-02T06:18:45;25.97;;;11.53;;
18789;SDS011;9523;42.650;23.386;2024-03-02T06:21:12;20.97;;;9.63;;
18789;SDS011;9523;42.650;23.386;2024-03-02T06:23:41;23.43;;;10.20;;
18789;SDS011;9523;42.650;23.386;2024-03-02T06:26:07;21.97;;;9.43;;
18789;SDS011;9523;42.650;23.386;2024-03-02T06:28:34;24.30;;;8.10;;
18789;SDS011;9523;42.650;23.386;2024-03-02T06:31:01;17.10;;;8.40;;
18789;SDS011;9523;42.650;23.386;2024-03-02T06:33:29;23.77;;;9.47;;
18789;SDS011;9523;42.650;23.386;2024-03-02T06:35:55;22.03;;;8.53;;
18789;SDS011;9523;42.650;23.386;2024-03-02T06:38:22;25.97;;;9.80;;
18789;SDS011;9523;42.650;23.386;2024-03-02T06:40:51;28.13;;;9.97;;
18789;SDS011;9523;42.650;23.386;2024-03-02T06:43:18;28.23;;;9.30;;
18789;SDS011;9523;42.650;23.386;2024-03-02T06:45:48;27.00;;;10.70;;
18789;SDS011;9523;42.650;23.386;2024-03-02T06:48:15;24.10;;;9.33;;
18789;SDS011;9523;42.650;23.386;2024-03-02T06:50:45;27.57;;;11.27;;
18789;SDS011;9523;42.650;23.386;2024-03-02T06:53:13;23.30;;;9.07;;
18789;SDS011;9523;42.650;23.386;2024-03-02T06:55:42;22.27;;;9.83;;
18789;SDS011;9523;42.650;23.386;2024-03-02T06:58:11;25.30;;;9.87;;
18789;SDS011;9523;42.650;23.386;2024-03-02T07:00:38;16.80;;;8.77;;
18789;SDS011;9523;42.650;23.386;2024-03-02T07:03:05;19.83;;;8.83;;
18789;SDS011;9523;42.650;23.386;2024-03-02T07:05:32;20.40;;;8.70;;
18789;SDS011;9523;42.650;23.386;2024-03-02T07:07:59;22.40;;;9.93;;
18789;SDS011;9523;42.650;23.386;2024-03-02T07:10:26;20.97;;;8.43;;
18789;SDS011;9523;42.650;23.386;2024-03-02T07:12:53;21.20;;;9.83;;
18789;SDS011;9523;42.650;23.386;2024-03-02T07:15:22;22.63;;;9.87;;
18789;SDS011;9523;42.650;23.386;2024-03-02T07:18:09;23.83;;;9.27;;
18789;SDS011;9523;42.650;23.386;2024-03-02T07:20:36;23.27;;;10.17;;
18789;SDS011;9523;42.650;23.386;2024-03-02T07:23:04;18.63;;;9.30;;
18789;SDS011;9523;42.650;23.386;2024-03-02T07:25:32;21.07;;;9.97;;
18789;SDS011;9523;42.650;23.386;2024-03-02T07:27:59;24.13;;;10.00;;
18789;SDS011;9523;42.650;23.386;2024-03-02T07:30:27;25.20;;;10.47;;
18789;SDS011;9523;42.650;23.386;2024-03-02T07:32:54;22.47;;;9.10;;
18789;SDS011;9523;42.650;23.386;2024-03-02T07:35:21;26.70;;;9.53;;
18789;SDS011;9523;42.650;23.386;2024-03-02T07:37:51;27.63;;;8.93;;
18789;SDS011;9523;42.650;23.386;2024-03-02T07:40:19;22.80;;;9.13;;
18789;SDS011;9523;42.650;23.386;2024-03-02T07:42:46;20.33;;;9.23;;
18789;SDS011;9523;42.650;23.386;2024-03-02T07:45:13;20.57;;;10.67;;
18789;SDS011;9523;42.650;23.386;2024-03-02T07:47:41;24.40;;;9.63;;
18789;SDS011;9523;42.650;23.386;2024-03-02T07:50:09;23.17;;;9.67;;
18789;SDS011;9523;42.650;23.386;2024-03-02T07:52:36;24.40;;;9.43;;
18789;SDS011;9523;42.650;23.386;2024-03-02T07:55:03;20.80;;;9.33;;
18789;SDS011;9523;42.650;23.386;2024-03-02T07:57:31;21.40;;;8.67;;
18789;SDS011;9523;42.650;23.386;2024-03-02T07:59:58;18.37;;;7.87;;
18789;SDS011;9523;42.650;23.386;2024-03-02T08:02:25;20.03;;;9.33;;
18789;SDS011;9523;42.650;23.386;2024-03-02T08:04:54;21.33;;;9.70;;
18789;SDS011;9523;42.650;23.386;2024-03-02T08:07:21;18.43;;;8.70;;
18789;SDS011;9523;42.650;23.386;2024-03-02T08:09:48;17.63;;;7.60;;
18789;SDS011;9523;42.650;23.386;2024-03-02T08:12:15;21.00;;;8.77;;
18789;SDS011;9523;42.650;23.386;2024-03-02T08:14:43;18.87;;;8.77;;
18789;SDS011;9523;42.650;23.386;2024-03-02T08:17:10;17.47;;;8.47;;
18789;SDS011;9523;42.650;23.386;2024-03-02T08:19:37;22.10;;;8.97;;
18789;SDS011;9523;42.650;23.386;2024-03-02T08:22:06;17.63;;;8.20;;
18789;SDS011;9523;42.650;23.386;2024-03-02T08:24:33;17.23;;;7.83;;
18789;SDS011;9523;42.650;23.386;2024-03-02T08:27:00;22.23;;;7.50;;
18789;SDS011;9523;42.650;23.386;2024-03-02T08:29:28;17.80;;;7.90;;
18789;SDS011;9523;42.650;23.386;2024-03-02T08:31:55;13.97;;;7.27;;
18789;SDS011;9523;42.650;23.386;2024-03-02T08:34:22;22.07;;;8.07;;
18789;SDS011;9523;42.650;23.386;2024-03-02T08:36:49;19.57;;;8.27;;
18789;SDS011;9523;42.650;23.386;2024-03-02T08:39:18;20.90;;;8.43;;
18789;SDS011;9523;42.650;23.386;2024-03-02T08:41:45;23.33;;;9.23;;
18789;SDS011;9523;42.650;23.386;2024-03-02T08:44:13;18.90;;;8.43;;
18789;SDS011;9523;42.650;23.386;2024-03-02T08:46:40;12.70;;;7.50;;
18789;SDS011;9523;42.650;23.386;2024-03-02T08:49:07;16.60;;;7.53;;
18789;SDS011;9523;42.650;23.386;2024-03-02T08:51:34;20.87;;;9.67;;
18789;SDS011;9523;42.650;23.386;2024-03-02T08:54:01;19.23;;;7.47;;
18789;SDS011;9523;42.650;23.386;2024-03-02T08:56:30;24.87;;;9.97;;
18789;SDS011;9523;42.650;23.386;2024-03-02T08:58:58;21.43;;;8.80;;
18789;SDS011;9523;42.650;23.386;2024-03-02T09:01:25;20.33;;;8.43;;
18789;SDS011;9523;42.650;23.386;2024-03-02T09:03:52;15.27;;;8.43;;
18789;SDS011;9523;42.650;23.386;2024-03-02T09:06:19;19.47;;;8.60;;
18789;SDS011;9523;42.650;23.386;2024-03-02T09:08:46;15.70;;;8.50;;
18789;SDS011;9523;42.650;23.386;2024-03-02T09:11:15;17.40;;;7.53;;
18789;SDS011;9523;42.650;23.386;2024-03-02T09:13:43;17.90;;;8.27;;
18789;SDS011;9523;42.650;23.386;2024-03-02T09:16:10;17.50;;;7.47;;
18789;SDS011;9523;42.650;23.386;2024-03-02T09:18:37;17.63;;;7.43;;
18789;SDS011;9523;42.650;23.386;2024-03-02T09:21:04;13.97;;;8.10;;
18789;SDS011;9523;42.650;23.386;2024-03-02T09:23:32;17.73;;;7.37;;
18789;SDS011;9523;42.650;23.386;2024-03-02T09:25:59;20.13;;;7.90;;
18789;SDS011;9523;42.650;23.386;2024-03-02T09:28:26;14.97;;;8.20;;
18789;SDS011;9523;42.650;23.386;2024-03-02T09:30:55;17.70;;;7.73;;
18789;SDS011;9523;42.650;23.386;2024-03-02T09:33:22;13.33;;;7.00;;
18789;SDS011;9523;42.650;23.386;2024-03-02T09:35:49;15.70;;;8.07;;
18789;SDS011;9523;42.650;23.386;2024-03-02T09:38:16;16.60;;;6.87;;
18789;SDS011;9523;42.650;23.386;2024-03-02T09:40:43;14.97;;;7.13;;
18789;SDS011;9523;42.650;23.386;2024-03-02T09:43:10;15.83;;;6.83;;
18789;SDS011;9523;42.650;23.386;2024-03-02T09:45:38;13.03;;;6.83;;
18789;SDS011;9523;42.650;23.386;2024-03-02T09:48:07;14.47;;;7.13;;
18789;SDS011;9523;42.650;23.386;2024-03-02T09:50:34;22.67;;;8.00;;
18789;SDS011;9523;42.650;23.386;2024-03-02T09:53:02;15.13;;;7.80;;
18789;SDS011;9523;42.650;23.386;2024-03-02T09:55:29;20.20;;;8.73;;
18789;SDS011;9523;42.650;23.386;2024-03-02T09:57:56;18.57;;;7.97;;
18789;SDS011;9523;42.650;23.386;2024-03-02T10:00:23;20.20;;;8.70;;
18789;SDS011;9523;42.650;23.386;2024-03-02T10:02:50;18.33;;;8.13;;
18789;SDS011;9523;42.650;23.386;2024-03-02T10:05:25;23.17;;;9.03;;
18789;SDS011;9523;42.650;23.386;2024-03-02T10:08:00;18.63;;;7.67;;
18789;SDS011;9523;42.650;23.386;2024-03-02T10:10:34;15.33;;;7.70;;
18789;SDS011;9523;42.650;23.386;2024-03-02T10:13:05;19.87;;;8.83;;
18789;SDS011;9523;42.650;23.386;2024-03-02T10:15:34;21.03;;;8.60;;
18789;SDS011;9523;42.650;23.386;2024-03-02T10:18:02;17.07;;;8.13;;
18789;SDS011;9523;42.650;23.386;2024-03-02T10:20:30;14.17;;;6.67;;
18789;SDS011;9523;42.650;23.386;2024-03-02T10:23:09;17.30;;;8.77;;
18789;SDS011;9523;42.650;23.386;2024-03-02T10:25:36;20.37;;;9.57;;
18789;SDS011;9523;42.650;23.386;2024-03-02T10:28:04;14.63;;;7.60;;
18789;SDS011;9523;42.650;23.386;2024-03-02T10:30:32;16.60;;;8.17;;
18789;SDS011;9523;42.650;23.386;2024-03-02T10:33:00;14.90;;;7.10;;
18789;SDS011;9523;42.650;23.386;2024-03-02T10:35:27;14.63;;;7.33;;
18789;SDS011;9523;42.650;23.386;2024-03-02T10:37:57;17.10;;;7.63;;
18789;SDS011;9523;42.650;23.386;2024-03-02T10:40:26;15.90;;;8.03;;
18789;SDS011;9523;42.650;23.386;2024-03-02T10:42:53;16.23;;;7.93;;
18789;SDS011;9523;42.650;23.386;2024-03-02T10:45:20;15.53;;;7.03;;
18789;SDS011;9523;42.650;23.386;2024-03-02T10:47:48;13.70;;;6.47;;
18789;SDS011;9523;42.650;23.386;2024-03-02T10:50:19;12.03;;;6.83;;
18789;SDS011;9523;42.650;23.386;2024-03-02T10:52:46;15.60;;;6.20;;
18789;SDS011;9523;42.650;23.386;2024-03-02T10:55:15;13.00;;;6.23;;
18789;SDS011;9523;42.650;23.386;2024-03-02T10:57:43;11.40;;;5.47;;
18789;SDS011;9523;42.650;23.386;2024-03-02T11:00:17;13.57;;;6.43;;
18789;SDS011;9523;42.650;23.386;2024-03-02T11:02:50;13.93;;;5.80;;
18789;SDS011;9523;42.650;23.386;2024-03-02T11:05:21;16.50;;;7.50;;
18789;SDS011;9523;42.650;23.386;2024-03-02T11:07:53;12.77;;;6.80;;
18789;SDS011;9523;42.650;23.386;2024-03-02T11:10:25;15.87;;;6.27;;
18789;SDS011;9523;42.650;23.386;2024-03-02T11:12:57;14.37;;;6.57;;
18789;SDS011;9523;42.650;23.386;2024-03-02T11:15:27;11.90;;;6.27;;
18789;SDS011;9523;42.650;23.386;2024-03-02T11:17:54;13.17;;;6.07;;
18789;SDS011;9523;42.650;23.386;2024-03-02T11:20:22;15.73;;;6.90;;
18789;SDS011;9523;42.650;23.386;2024-03-02T11:22:50;13.00;;;5.93;;
18789;SDS011;9523;42.650;23.386;2024-03-02T11:25:23;13.57;;;6.20;;
18789;SDS011;9523;42.650;23.386;2024-03-02T11:27:59;14.23;;;6.57;;
18789;SDS011;9523;42.650;23.386;2024-03-02T11:33:15;15.00;;;6.13;;
18789;SDS011;9523;42.650;23.386;2024-03-02T11:35:52;12.50;;;6.80;;
18789;SDS011;9523;42.650;23.386;2024-03-02T11:38:20;14.93;;;6.47;;
18789;SDS011;9523;42.650;23.386;2024-03-02T11:40:48;19.10;;;7.77;;
18789;SDS011;9523;42.650;23.386;2024-03-02T11:43:15;13.00;;;6.97;;
18789;SDS011;9523;42.650;23.386;2024-03-02T11:45:43;12.00;;;5.87;;
18789;SDS011;9523;42.650;23.386;2024-03-02T11:48:11;13.40;;;5.57;;
18789;SDS011;9523;42.650;23.386;2024-03-02T11:50:40;11.43;;;5.83;;
18789;SDS011;9523;42.650;23.386;2024-03-02T11:53:09;9.70;;;5.17;;
18789;SDS011;9523;42.650;23.386;2024-03-02T11:55:39;10.57;;;5.47;;
18789;SDS011;9523;42.650;23.386;2024-03-02T11:58:10;13.50;;;6.67;;
18789;SDS011;9523;42.650;23.386;2024-03-02T12:00:37;10.97;;;5.80;;
18789;SDS011;9523;42.650;23.386;2024-03-02T12:03:05;9.53;;;5.23;;
18789;SDS011;9523;42.650;23.386;2024-03-02T12:05:33;13.00;;;6.83;;
18789;SDS011;9523;42.650;23.386;2024-03-02T12:08:01;15.10;;;7.07;;
18789;SDS011;9523;42.650;23.386;2024-03-02T12:10:30;12.97;;;6.20;;
18789;SDS011;9523;42.650;23.386;2024-03-02T12:12:58;9.47;;;5.03;;
18789;SDS011;9523;42.650;23.386;2024-03-02T12:15:27;12.27;;;6.33;;
18789;SDS011;9523;42.650;23.386;2024-03-02T12:17:55;12.17;;;5.87;;
18789;SDS011;9523;42.650;23.386;2024-03-02T12:20:23;8.23;;;4.73;;
18789;SDS011;9523;42.650;23.386;2024-03-02T12:22:51;10.80;;;5.27;;
18789;SDS011;9523;42.650;23.386;2024-03-02T12:25:19;11.37;;;6.27;;
18789;SDS011;9523;42.650;23.386;2024-03-02T12:27:46;11.73;;;5.77;;
18789;SDS011;9523;42.650;23.386;2024-03-02T12:30:16;14.33;;;5.60;;
18789;SDS011;9523;42.650;23.386;2024-03-02T12:32:45;11.80;;;5.83;;
18789;SDS011;9523;42.650;23.386;2024-03-02T12:35:13;9.63;;;4.63;;
18789;SDS011;9523;42.650;23.386;2024-03-02T12:37:44;9.23;;;5.33;;
18789;SDS011;9523;42.650;23.386;2024-03-02T12:40:12;7.70;;;4.67;;
18789;SDS011;9523;42.650;23.386;2024-03-02T12:42:40;13.80;;;5.40;;
18789;SDS011;9523;42.650;23.386;2024-03-02T12:45:08;10.40;;;5.07;;
18789;SDS011;9523;42.650;23.386;2024-03-02T12:47:35;11.23;;;5.07;;
18789;SDS011;9523;42.650;23.386;2024-03-02T12:50:05;11.27;;;5.43;;
18789;SDS011;9523;42.650;23.386;2024-03-02T12:52:33;11.63;;;6.17;;
18789;SDS011;9523;42.650;23.386;2024-03-02T12:55:00;7.87;;;5.30;;
18789;SDS011;9523;42.650;23.386;2024-03-02T12:57:28;11.03;;;5.37;;
18789;SDS011;9523;42.650;23.386;2024-03-02T12:59:57;10.50;;;5.60;;
18789;SDS011;9523;42.650;23.386;2024-03-02T13:02:27;16.43;;;6.20;;
18789;SDS011;9523;42.650;23.386;2024-03-02T13:04:55;11.07;;;5.47;;
18789;SDS011;9523;42.650;23.386;2024-03-02T13:07:25;10.37;;;5.23;;
18789;SDS011;9523;42.650;23.386;2024-03-02T13:09:52;12.53;;;5.53;;
18789;SDS011;9523;42.650;23.386;2024-03-02T13:12:20;11.63;;;5.93;;
18789;SDS011;9523;42.650;23.386;2024-03-02T13:14:48;12.03;;;5.87;;
18789;SDS011;9523;42.650;23.386;2024-03-02T13:17:17;11.97;;;5.93;;
18789;SDS011;9523;42.650;23.386;2024-03-02T13:19:53;10.80;;;5.70;;
18789;SDS011;9523;42.650;23.386;2024-03-02T13:22:20;12.37;;;5.53;;
18789;SDS011;9523;42.650;23.386;2024-03-02T13:24:50;10.30;;;5.77;;
18789;SDS011;9523;42.650;23.386;2024-03-02T13:27:18;14.63;;;6.70;;
18789;SDS011;9523;42.650;23.386;2024-03-02T13:29:45;14.60;;;6.60;;
18789;SDS011;9523;42.650;23.386;2024-03-02T13:32:13;13.40;;;5.60;;
18789;SDS011;9523;42.650;23.386;2024-03-02T13:34:40;14.20;;;6.03;;
18789;SDS011;9523;42.650;23.386;2024-03-02T13:37:07;11.33;;;5.77;;
18789;SDS011;9523;42.650;23.386;2024-03-02T13:39:35;13.70;;;6.20;;
18789;SDS011;9523;42.650;23.386;2024-03-02T13:42:08;11.77;;;5.50;;
18789;SDS011;9523;42.650;23.386;2024-03-02T13:44:36;14.10;;;6.63;;
18789;SDS011;9523;42.650;23.386;2024-03-02T13:47:03;10.10;;;5.67;;
18789;SDS011;9523;42.650;23.386;2024-03-02T13:49:31;11.80;;;6.13;;
18789;SDS011;9523;42.650;23.386;2024-03-02T13:52:01;12.67;;;6.40;;
18789;SDS011;9523;42.650;23.386;2024-03-02T13:54:36;11.57;;;6.53;;
18789;SDS011;9523;42.650;23.386;2024-03-02T13:57:04;13.10;;;6.37;;
18789;SDS011;9523;42.650;23.386;2024-03-02T13:59:33;11.40;;;6.13;;
18789;SDS011;9523;42.650;23.386;2024-03-02T14:02:00;12.07;;;6.17;;
18789;SDS011;9523;42.650;23.386;2024-03-02T14:04:29;11.20;;;6.00;;
18789;SDS011;9523;42.650;23.386;2024-03-02T14:06:57;14.80;;;6.73;;
18789;SDS011;9523;42.650;23.386;2024-03-02T14:09:24;12.67;;;6.13;;
18789;SDS011;9523;42.650;23.386;2024-03-02T14:11:51;12.60;;;5.97;;
18789;SDS011;9523;42.650;23.386;2024-03-02T14:14:18;12.47;;;6.47;;
18789;SDS011;9523;42.650;23.386;2024-03-02T14:16:46;12.57;;;6.37;;
18789;SDS011;9523;42.650;23.386;2024-03-02T14:19:13;12.07;;;6.60;;
18789;SDS011;9523;42.650;23.386;2024-03-02T14:21:41;11.70;;;6.13;;
18789;SDS011;9523;42.650;23.386;2024-03-02T14:24:08;9.57;;;5.60;;
18789;SDS011;9523;42.650;23.386;2024-03-02T14:26:35;9.67;;;6.03;;
18789;SDS011;9523;42.650;23.386;2024-03-02T14:29:03;11.30;;;6.57;;
18789;SDS011;9523;42.650;23.386;2024-03-02T14:31:30;12.80;;;6.70;;
18789;SDS011;9523;42.650;23.386;2024-03-02T14:33:59;12.83;;;6.87;;
18789;SDS011;9523;42.650;23.386;2024-03-02T14:36:26;12.70;;;6.50;;
18789;SDS011;9523;42.650;23.386;2024-03-02T14:38:53;14.20;;;6.63;;